createdAt,value
2019-03-26T00:02:29.358Z,101501.64
2019-03-26T00:04:59.623Z,101496.69
2019-03-26T00:07:29.759Z,101506.00
2019-03-26T00:09:59.886Z,101507.84
2019-03-26T00:12:30.033Z,101508.14
2019-03-26T00:15:00.463Z,101507.75
2019-03-26T00:17:30.590Z,101516.39
2019-03-26T00:20:00.747Z,101513.45
2019-03-26T00:22:30.907Z,101519.47
2019-03-26T00:25:01.005Z,101517.59
2019-03-26T00:27:31.262Z,101518.70
2019-03-26T00:30:01.342Z,101530.84
2019-03-26T00:32:31.623Z,101533.31
2019-03-26T00:35:01.781Z,101532.63
2019-03-26T00:37:31.882Z,101528.66
2019-03-26T00:40:01.983Z,101525.02
2019-03-26T00:42:32.049Z,101522.94
2019-03-26T00:45:02.196Z,101527.20
2019-03-26T00:47:32.275Z,101530.27
2019-03-26T00:50:02.557Z,101537.97
2019-03-26T00:52:32.627Z,101529.72
2019-03-26T00:55:02.758Z,101528.48
2019-03-26T00:57:32.975Z,101526.59
2019-03-26T01:00:03.424Z,101536.20
2019-03-26T01:02:33.510Z,101537.88
2019-03-26T01:05:03.665Z,101543.56
2019-03-26T01:07:33.773Z,101543.56
2019-03-26T01:10:04.163Z,101543.95
2019-03-26T01:12:34.301Z,101538.27
2019-03-26T01:15:06.473Z,101538.27
2019-03-26T01:17:36.574Z,101544.05
2019-03-26T01:20:06.816Z,101537.45
2019-03-26T01:22:37.038Z,101539.70
2019-03-26T01:25:07.200Z,101543.27
2019-03-26T01:27:37.371Z,101533.08
2019-03-26T01:30:07.653Z,101533.08
2019-03-26T01:32:37.752Z,101539.53
2019-03-26T01:35:08.251Z,101544.98
2019-03-26T01:37:38.473Z,101532.67
2019-03-26T01:40:08.624Z,101532.67
2019-03-26T01:42:38.676Z,101539.62
2019-03-26T01:45:09.212Z,101544.98
2019-03-26T01:47:39.351Z,101532.00
2019-03-26T01:50:09.624Z,101544.98
2019-03-26T01:52:39.726Z,101544.98
2019-03-26T01:55:09.952Z,101559.88
2019-03-26T01:57:40.156Z,101552.91
2019-03-26T02:00:12.910Z,101551.90
2019-03-26T02:02:43.332Z,101571.16
2019-03-26T02:05:13.344Z,101566.06
2019-03-26T02:07:45.414Z,101566.72
2019-03-26T02:10:15.953Z,101570.75
2019-03-26T02:12:51.586Z,101576.44
2019-03-26T02:15:33.795Z,101576.44
2019-03-26T02:18:04.117Z,101576.13
2019-03-26T02:20:34.442Z,101586.34
2019-03-26T02:23:04.561Z,101586.34
2019-03-26T02:25:34.752Z,101585.62
2019-03-26T02:28:04.898Z,101588.12
2019-03-26T02:30:34.947Z,101583.83
2019-03-26T02:33:05.204Z,101576.35
2019-03-26T02:35:35.269Z,101576.35
2019-03-26T02:38:05.365Z,101567.02
2019-03-26T02:40:35.421Z,101569.36
2019-03-26T02:43:05.571Z,101570.97
2019-03-26T02:45:35.673Z,101570.97
2019-03-26T02:48:05.816Z,101568.79
2019-03-26T02:50:35.916Z,101576.36
2019-03-26T02:53:08.754Z,101576.36
2019-03-26T02:55:37.967Z,101574.44
2019-03-26T02:58:08.039Z,101574.44
2019-03-26T03:00:38.135Z,101572.09
2019-03-26T03:03:08.383Z,101569.05
2019-03-26T03:05:38.589Z,101573.72
2019-03-26T03:08:08.740Z,101573.72
2019-03-26T03:10:39.091Z,101582.74
2019-03-26T03:13:09.285Z,101572.17
2019-03-26T03:15:39.458Z,101585.24
2019-03-26T03:18:09.623Z,101587.23
2019-03-26T03:20:39.806Z,101592.80
2019-03-26T03:23:10.043Z,101585.52
2019-03-26T03:25:40.156Z,101590.59
2019-03-26T03:28:10.301Z,101591.05
2019-03-26T03:30:40.377Z,101591.05
2019-03-26T03:33:10.531Z,101593.75
2019-03-26T03:35:52.130Z,101594.99
2019-03-26T03:38:12.680Z,101599.66
2019-03-26T03:40:42.818Z,101606.66
2019-03-26T03:43:12.978Z,101604.20
2019-03-26T03:45:43.177Z,101607.20
2019-03-26T03:48:13.275Z,101609.42
2019-03-26T03:50:43.432Z,101597.55
2019-03-26T03:53:13.605Z,101615.30
2019-03-26T03:55:43.924Z,101615.30
2019-03-26T03:58:14.064Z,101616.66
2019-03-26T04:00:44.331Z,101625.64
2019-03-26T04:03:14.505Z,101620.98
2019-03-26T04:05:44.972Z,101623.47
2019-03-26T04:08:15.034Z,101623.47
2019-03-26T04:10:45.310Z,101617.23
2019-03-26T04:13:15.462Z,101625.09
2019-03-26T04:15:45.635Z,101625.95
2019-03-26T04:18:15.803Z,101625.95
2019-03-26T04:20:46.101Z,101630.76
2019-03-26T04:23:16.198Z,101626.30
2019-03-26T04:25:46.321Z,101626.30
2019-03-26T04:28:16.500Z,101625.99
2019-03-26T04:30:46.791Z,101638.52
2019-03-26T04:33:16.946Z,101644.22
2019-03-26T04:35:47.233Z,101644.22
2019-03-26T04:38:17.414Z,101643.11
2019-03-26T04:40:47.740Z,101650.70
2019-03-26T04:43:19.139Z,101645.20
2019-03-26T04:45:49.447Z,101654.74
2019-03-26T04:48:19.534Z,101643.27
2019-03-26T04:50:49.856Z,101647.87
2019-03-26T04:53:19.946Z,101647.87
2019-03-26T04:55:50.230Z,101654.80
2019-03-26T04:58:20.400Z,101654.80
2019-03-26T05:00:50.671Z,101655.45
2019-03-26T05:03:20.637Z,101655.45
2019-03-26T05:05:50.902Z,101637.86
2019-03-26T05:08:20.993Z,101637.86
2019-03-26T05:10:51.166Z,101647.20
2019-03-26T05:13:21.430Z,101652.61
2019-03-26T05:15:51.609Z,101659.78
2019-03-26T05:18:21.776Z,101659.78
2019-03-26T05:20:52.052Z,101657.17
2019-03-26T05:23:22.110Z,101656.55
2019-03-26T05:25:52.497Z,101656.55
2019-03-26T05:28:22.635Z,101667.32
2019-03-26T05:30:52.840Z,101667.32
2019-03-26T05:33:23.029Z,101663.66
2019-03-26T05:35:53.263Z,101651.22
2019-03-26T05:38:23.347Z,101656.12
2019-03-26T05:40:53.527Z,101656.12
2019-03-26T05:43:23.591Z,101682.10
2019-03-26T05:45:53.872Z,101682.10
2019-03-26T05:48:24.034Z,101681.86
2019-03-26T05:50:54.325Z,101681.73
2019-03-26T05:53:24.577Z,101681.73
2019-03-26T05:55:54.777Z,101689.83
2019-03-26T05:58:25.009Z,101689.83
2019-03-26T06:00:55.304Z,101699.09
2019-03-26T06:03:25.543Z,101690.10
2019-03-26T06:05:55.849Z,101692.95
2019-03-26T06:08:26.009Z,101703.77
2019-03-26T06:10:56.204Z,101701.05
2019-03-26T06:13:26.354Z,101698.34
2019-03-26T06:15:56.525Z,101704.84
2019-03-26T06:18:26.699Z,101696.75
2019-03-26T06:20:56.907Z,101663.95
2019-03-26T06:23:27.150Z,101690.50
2019-03-26T06:25:57.309Z,101693.38
2019-03-26T06:28:27.466Z,101693.81
2019-03-26T06:30:57.752Z,101690.75
2019-03-26T06:33:27.811Z,101689.41
2019-03-26T06:35:57.981Z,101687.52
2019-03-26T06:38:28.177Z,101694.27
2019-03-26T06:40:58.444Z,101702.39
2019-03-26T06:43:28.535Z,101709.72
2019-03-26T06:45:58.731Z,101707.97
2019-03-26T06:48:29.012Z,101712.73
2019-03-26T06:50:59.064Z,101717.73
2019-03-26T06:53:29.350Z,101711.24
2019-03-26T06:55:59.505Z,101709.81
2019-03-26T06:58:29.806Z,101714.38
2019-03-26T07:00:59.959Z,101715.49
2019-03-26T07:03:30.142Z,101726.97
2019-03-26T07:06:00.289Z,101732.13
2019-03-26T07:08:30.481Z,101725.34
2019-03-26T07:11:00.662Z,101737.27
2019-03-26T07:13:30.957Z,101734.77
2019-03-26T07:16:01.240Z,101742.72
2019-03-26T07:18:31.477Z,101749.45
2019-03-26T07:21:01.633Z,101743.27
2019-03-26T07:23:31.804Z,101748.35
2019-03-26T07:26:01.960Z,101756.97
2019-03-26T07:28:32.149Z,101757.37
2019-03-26T07:31:02.273Z,101765.65
2019-03-26T07:33:32.442Z,101772.37
2019-03-26T07:36:02.741Z,101763.23
2019-03-26T07:38:32.766Z,101771.41
2019-03-26T07:41:03.265Z,101770.67
2019-03-26T07:43:33.533Z,101771.41
2019-03-26T07:46:03.804Z,101773.95
2019-03-26T07:48:34.736Z,101773.35
2019-03-26T07:51:05.018Z,101776.02
2019-03-26T07:53:35.325Z,101777.72
2019-03-26T07:56:06.260Z,101783.39
2019-03-26T07:58:37.913Z,101793.66
2019-03-26T08:01:08.893Z,101787.56
2019-03-26T08:03:39.300Z,101788.27
2019-03-26T08:06:10.051Z,101781.86
2019-03-26T08:08:40.765Z,101794.33
2019-03-26T08:11:11.293Z,101792.86
2019-03-26T08:13:41.526Z,101800.93
2019-03-26T08:16:11.800Z,101806.11
2019-03-26T08:18:41.890Z,101803.23
2019-03-26T08:21:12.187Z,101805.09
2019-03-26T08:23:42.435Z,101802.10
2019-03-26T08:26:12.629Z,101809.53
2019-03-26T08:28:42.924Z,101809.20
2019-03-26T08:31:13.217Z,101810.66
2019-03-26T08:33:43.418Z,101818.86
2019-03-26T08:36:13.657Z,101817.36
2019-03-26T08:38:43.831Z,101819.17
2019-03-26T08:41:14.034Z,101821.05
2019-03-26T08:43:44.209Z,101830.38
2019-03-26T08:46:14.343Z,101831.00
2019-03-26T08:48:44.620Z,101834.55
2019-03-26T08:51:14.847Z,101829.21
2019-03-26T08:53:44.999Z,101830.30
2019-03-26T08:56:15.155Z,101831.99
2019-03-26T08:58:45.334Z,101833.05
2019-03-26T09:01:15.493Z,101830.90
2019-03-26T09:03:45.662Z,101835.86
2019-03-26T09:06:15.938Z,101829.66
2019-03-26T09:08:46.188Z,101838.62
2019-03-26T09:11:16.417Z,101844.44
2019-03-26T09:13:46.551Z,101844.61
2019-03-26T09:16:16.827Z,101849.46
2019-03-26T09:18:47.004Z,101857.28
2019-03-26T09:21:17.279Z,101856.42
2019-03-26T09:23:47.358Z,101861.66
2019-03-26T09:26:17.511Z,101865.27
2019-03-26T09:28:48.110Z,101856.05
2019-03-26T09:31:18.342Z,101857.86
2019-03-26T09:33:48.553Z,101865.39
2019-03-26T09:36:18.726Z,101868.05
2019-03-26T09:38:48.880Z,101863.52
2019-03-26T09:41:19.161Z,101851.79
2019-03-26T09:43:49.202Z,101861.45
2019-03-26T09:46:19.502Z,101859.20
2019-03-26T09:48:49.743Z,101864.27
2019-03-26T09:51:20.195Z,101861.92
2019-03-26T09:53:50.426Z,101861.59
2019-03-26T09:56:29.169Z,101858.01
2019-03-26T09:58:52.679Z,101855.34
2019-03-26T10:01:22.801Z,101855.58
2019-03-26T10:03:53.005Z,101850.47
2019-03-26T10:06:24.166Z,101845.89
2019-03-26T10:08:54.331Z,101854.33
2019-03-26T10:11:24.446Z,101848.06
2019-03-26T10:13:54.532Z,101847.86
2019-03-26T10:16:24.778Z,101858.56
2019-03-26T10:18:54.944Z,101854.46
2019-03-26T10:21:25.010Z,101856.07
2019-03-26T10:23:55.198Z,101854.16
2019-03-26T10:26:25.263Z,101843.97
2019-03-26T10:28:55.537Z,101854.78
2019-03-26T10:31:25.687Z,101848.73
2019-03-26T10:33:55.883Z,101848.05
2019-03-26T10:36:25.967Z,101840.05
2019-03-26T10:39:05.598Z,101843.19
2019-03-26T10:41:28.006Z,101829.05
2019-03-26T10:43:58.116Z,101825.55
2019-03-26T10:46:28.285Z,101819.50
2019-03-26T10:48:58.647Z,101823.78
2019-03-26T10:51:28.798Z,101820.78
2019-03-26T10:53:58.960Z,101829.50
2019-03-26T10:56:29.051Z,101823.77
2019-03-26T10:58:59.345Z,101825.01
2019-03-26T11:01:29.397Z,101818.26
2019-03-26T11:03:59.919Z,101811.52
2019-03-26T11:06:30.062Z,101812.81
2019-03-26T11:09:00.317Z,101795.69
2019-03-26T11:11:30.495Z,101788.95
2019-03-26T11:14:00.951Z,101791.51
2019-03-26T11:16:31.043Z,101787.61
2019-03-26T11:19:01.535Z,101798.23
2019-03-26T11:21:31.899Z,101787.53
2019-03-26T11:24:02.137Z,101788.19
2019-03-26T11:26:32.328Z,101786.69
2019-03-26T11:29:02.601Z,101782.63
2019-03-26T11:31:32.861Z,101784.01
2019-03-26T11:34:03.038Z,101787.98
2019-03-26T11:36:33.338Z,101780.92
2019-03-26T11:39:04.454Z,101778.32
2019-03-26T11:41:34.875Z,101776.03
2019-03-26T11:44:05.196Z,101767.15
2019-03-26T11:46:35.542Z,101771.59
2019-03-26T11:49:05.822Z,101771.23
2019-03-26T11:51:36.013Z,101768.83
2019-03-26T11:54:06.167Z,101759.30
2019-03-26T11:56:36.332Z,101761.12
2019-03-26T11:59:06.595Z,101760.20
2019-03-26T12:01:36.802Z,101757.28
2019-03-26T12:04:07.046Z,101746.19
2019-03-26T12:06:37.209Z,101753.47
2019-03-26T12:09:09.016Z,101757.42
2019-03-26T12:11:39.315Z,101748.81
2019-03-26T12:14:09.919Z,101733.02
2019-03-26T12:16:40.433Z,101730.22
2019-03-26T12:19:11.678Z,101735.05
2019-03-26T12:21:42.311Z,101728.56
2019-03-26T12:24:12.480Z,101723.98
2019-03-26T12:26:43.086Z,101723.26
2019-03-26T12:29:13.123Z,101732.50
2019-03-26T12:31:43.602Z,101725.98
2019-03-26T12:34:14.040Z,101725.75
2019-03-26T12:36:44.467Z,101733.41
2019-03-26T12:39:14.525Z,101741.69
2019-03-26T12:41:44.761Z,101734.88
2019-03-26T12:44:14.860Z,101738.73
2019-03-26T12:46:45.118Z,101738.45
2019-03-26T12:49:15.282Z,101743.89
2019-03-26T12:51:45.587Z,101747.17
2019-03-26T12:54:15.654Z,101738.64
2019-03-26T12:56:45.854Z,101738.87
2019-03-26T12:59:16.077Z,101740.91
2019-03-26T13:01:46.378Z,101741.05
2019-03-26T13:04:16.914Z,101737.58
2019-03-26T13:06:47.379Z,101737.50
2019-03-26T13:09:17.586Z,101739.63
2019-03-26T13:11:47.849Z,101737.63
2019-03-26T13:14:18.024Z,101736.78
2019-03-26T13:16:48.225Z,101748.08
2019-03-26T13:19:18.495Z,101745.38
2019-03-26T13:21:48.887Z,101742.27
2019-03-26T13:24:19.015Z,101735.70
2019-03-26T13:26:49.260Z,101727.64
2019-03-26T13:29:19.606Z,101733.73
2019-03-26T13:31:49.816Z,101723.78
2019-03-26T13:34:19.926Z,101716.80
2019-03-26T13:36:50.307Z,101711.36
2019-03-26T13:39:20.387Z,101711.85
2019-03-26T13:41:50.444Z,101710.95
2019-03-26T13:44:20.715Z,101703.67
2019-03-26T13:46:50.828Z,101702.13
2019-03-26T13:49:20.922Z,101690.64
2019-03-26T13:51:51.133Z,101689.12
2019-03-26T13:54:21.276Z,101688.05
2019-03-26T13:56:51.560Z,101691.93
2019-03-26T13:59:21.726Z,101693.70
2019-03-26T14:01:52.104Z,101690.53
2019-03-26T14:04:22.596Z,101693.94
2019-03-26T14:06:52.903Z,101687.50
2019-03-26T14:09:23.184Z,101692.50
2019-03-26T14:11:53.345Z,101679.44
2019-03-26T14:14:23.508Z,101680.86
2019-03-26T14:16:54.296Z,101684.93
2019-03-26T14:19:24.672Z,101683.05
2019-03-26T14:21:54.868Z,101690.58
2019-03-26T14:24:25.517Z,101699.75
2019-03-26T14:26:55.610Z,101685.31
2019-03-26T14:29:25.771Z,101684.52
2019-03-26T14:31:55.950Z,101685.92
2019-03-26T14:34:26.320Z,101692.86
2019-03-26T14:36:56.850Z,101685.66
2019-03-26T14:39:27.403Z,101683.93
2019-03-26T14:41:57.636Z,101689.00
2019-03-26T14:44:28.041Z,101694.77
2019-03-26T14:46:58.279Z,101701.61
2019-03-26T14:49:28.484Z,101703.77
2019-03-26T14:51:58.563Z,101702.58
2019-03-26T14:54:28.854Z,101703.55
2019-03-26T14:56:59.120Z,101702.47
2019-03-26T14:59:29.372Z,101695.30
2019-03-26T15:01:59.540Z,101698.21
2019-03-26T15:04:29.698Z,101696.36
2019-03-26T15:06:59.886Z,101694.17
2019-03-26T15:09:30.248Z,101695.01
2019-03-26T15:12:00.321Z,101693.45
2019-03-26T15:14:30.615Z,101705.52
2019-03-26T15:17:00.841Z,101698.95
2019-03-26T15:19:31.447Z,101704.77
2019-03-26T15:22:01.720Z,101700.98
2019-03-26T15:24:33.018Z,101700.02
2019-03-26T15:27:03.300Z,101696.72
2019-03-26T15:29:33.795Z,101695.63
2019-03-26T15:32:05.476Z,101695.11
2019-03-26T15:34:36.520Z,101684.78
2019-03-26T15:37:08.226Z,101686.47
2019-03-26T15:39:38.752Z,101682.83
2019-03-26T15:42:08.810Z,101682.73
2019-03-26T15:44:39.338Z,101684.44
2019-03-26T15:47:09.594Z,101682.20
2019-03-26T15:49:39.746Z,101682.20
2019-03-26T15:52:09.724Z,101690.60
2019-03-26T15:54:40.016Z,101689.42
2019-03-26T15:57:10.162Z,101691.86
2019-03-26T15:59:40.385Z,101690.27
2019-03-26T16:02:10.371Z,101694.93
2019-03-26T16:04:40.775Z,101688.34
2019-03-26T16:07:10.917Z,101694.44
2019-03-26T16:09:41.059Z,101693.33
2019-03-26T16:12:11.382Z,101694.53
2019-03-26T16:14:41.675Z,101693.33
2019-03-26T16:17:11.765Z,101684.17
2019-03-26T16:19:41.752Z,101687.34
2019-03-26T16:22:12.136Z,101683.60
2019-03-26T16:24:42.308Z,101684.94
2019-03-26T16:27:12.611Z,101687.22
2019-03-26T16:29:42.769Z,101688.09
2019-03-26T16:32:12.905Z,101690.28
2019-03-26T16:34:43.150Z,101692.39
2019-03-26T16:37:13.256Z,101686.09
2019-03-26T16:39:43.339Z,101679.09
2019-03-26T16:42:13.668Z,101679.17
2019-03-26T16:44:43.886Z,101678.15
2019-03-26T16:47:14.180Z,101683.55
2019-03-26T16:49:44.218Z,101684.89
2019-03-26T16:52:14.380Z,101681.92
2019-03-26T16:54:44.624Z,101683.79
2019-03-26T16:57:14.914Z,101686.72
2019-03-26T16:59:45.127Z,101681.64
2019-03-26T17:02:15.426Z,101695.39
2019-03-26T17:04:46.946Z,101688.95
2019-03-26T17:07:17.337Z,101694.91
2019-03-26T17:09:47.506Z,101695.03
2019-03-26T17:12:17.805Z,101688.17
2019-03-26T17:14:47.986Z,101688.86
2019-03-26T17:17:18.141Z,101703.94
2019-03-26T17:19:48.309Z,101705.11
2019-03-26T17:22:18.592Z,101703.25
2019-03-26T17:24:48.660Z,101706.95
2019-03-26T17:27:18.932Z,101703.68
2019-03-26T17:29:49.242Z,101710.23
2019-03-26T17:32:19.491Z,101700.27
2019-03-26T17:34:49.927Z,101697.63
2019-03-26T17:37:20.383Z,101703.22
2019-03-26T17:39:50.685Z,101696.95
2019-03-26T17:42:21.717Z,101700.68
2019-03-26T17:44:51.960Z,101704.70
2019-03-26T17:47:22.235Z,101708.09
2019-03-26T17:49:52.501Z,101704.67
2019-03-26T17:52:22.695Z,101712.00
2019-03-26T17:54:52.857Z,101716.00
2019-03-26T17:57:23.147Z,101715.30
2019-03-26T17:59:53.345Z,101712.59
2019-03-26T18:02:23.706Z,101718.30
2019-03-26T18:04:53.962Z,101720.85
2019-03-26T18:07:24.330Z,101721.06
2019-03-26T18:09:54.530Z,101732.58
2019-03-26T18:12:30.702Z,101729.64
2019-03-26T18:14:56.770Z,101722.59
2019-03-26T18:17:27.233Z,101724.22
2019-03-26T18:19:57.287Z,101724.48
2019-03-26T18:22:27.501Z,101729.77
2019-03-26T18:24:57.715Z,101722.43
2019-03-26T18:27:27.777Z,101732.08
2019-03-26T18:29:57.959Z,101731.98
2019-03-26T18:32:28.148Z,101729.33
2019-03-26T18:34:58.428Z,101731.78
2019-03-26T18:37:28.660Z,101733.20
2019-03-26T18:39:58.902Z,101728.27
2019-03-26T18:42:29.151Z,101727.12
2019-03-26T18:44:59.272Z,101724.45
2019-03-26T18:47:29.579Z,101720.95
2019-03-26T18:49:59.850Z,101718.67
2019-03-26T18:52:29.994Z,101715.53
2019-03-26T18:55:00.263Z,101723.83
2019-03-26T18:57:30.559Z,101718.95
2019-03-26T19:00:00.834Z,101717.55
2019-03-26T19:02:30.884Z,101716.59
2019-03-26T19:05:01.093Z,101723.61
2019-03-26T19:07:31.265Z,101724.73
2019-03-26T19:10:01.498Z,101718.92
2019-03-26T19:12:31.762Z,101718.34
2019-03-26T19:15:01.985Z,101708.64
2019-03-26T19:17:32.155Z,101715.98
2019-03-26T19:20:02.317Z,101717.25
2019-03-26T19:22:32.355Z,101722.09
2019-03-26T19:25:02.651Z,101719.36
2019-03-26T19:27:33.823Z,101719.84
2019-03-26T19:30:04.226Z,101713.28
2019-03-26T19:32:34.312Z,101711.20
2019-03-26T19:35:04.487Z,101709.31
2019-03-26T19:37:34.630Z,101711.19
2019-03-26T19:40:04.731Z,101709.68
2019-03-26T19:42:34.738Z,101719.95
2019-03-26T19:45:04.941Z,101714.63
2019-03-26T19:47:35.116Z,101719.47
2019-03-26T19:50:06.316Z,101727.92
2019-03-26T19:52:36.815Z,101735.14
2019-03-26T19:55:07.190Z,101736.47
2019-03-26T19:57:37.336Z,101735.70
2019-03-26T20:00:08.619Z,101732.86
2019-03-26T20:02:38.904Z,101733.69
2019-03-26T20:05:09.300Z,101741.77
2019-03-26T20:07:39.452Z,101733.78
2019-03-26T20:10:10.039Z,101733.88
2019-03-26T20:12:39.998Z,101726.97
2019-03-26T20:15:10.278Z,101731.16
2019-03-26T20:17:40.433Z,101731.56
2019-03-26T20:20:10.856Z,101733.34
2019-03-26T20:22:40.989Z,101734.80
2019-03-26T20:25:11.270Z,101746.89
2019-03-26T20:27:41.535Z,101745.71
2019-03-26T20:30:11.806Z,101744.88
2019-03-26T20:32:42.076Z,101748.46
2019-03-26T20:35:12.338Z,101764.33
2019-03-26T20:37:42.514Z,101762.55
2019-03-26T20:40:12.804Z,101764.08
2019-03-26T20:42:44.782Z,101767.09
2019-03-26T20:45:15.183Z,101776.16
2019-03-26T20:47:45.484Z,101770.53
2019-03-26T20:50:15.534Z,101774.25
2019-03-26T20:52:45.723Z,101774.33
2019-03-26T20:55:16.178Z,101773.20
2019-03-26T20:57:46.599Z,101757.12
2019-03-26T21:00:24.436Z,101761.69
2019-03-26T21:02:54.966Z,101757.71
2019-03-26T21:05:25.379Z,101758.45
2019-03-26T21:07:55.408Z,101758.55
2019-03-26T21:10:25.716Z,101760.84
2019-03-26T21:12:56.017Z,101767.00
2019-03-26T21:15:26.284Z,101763.67
2019-03-26T21:17:56.535Z,101751.89
2019-03-26T21:20:26.812Z,101748.45
2019-03-26T21:22:56.999Z,101753.61
2019-03-26T21:25:27.359Z,101751.69
2019-03-26T21:27:57.534Z,101752.64
2019-03-26T21:30:27.784Z,101754.55
2019-03-26T21:32:57.974Z,101749.94
2019-03-26T21:35:29.005Z,101744.70
2019-03-26T21:37:59.404Z,101744.05
2019-03-26T21:40:29.669Z,101742.11
2019-03-26T21:42:59.778Z,101730.22
2019-03-26T21:45:39.852Z,101737.28
2019-03-26T21:48:10.053Z,101738.04
2019-03-26T21:50:40.288Z,101746.16
2019-03-26T21:53:10.496Z,101739.47
2019-03-26T21:55:40.646Z,101749.24
2019-03-26T21:58:10.716Z,101748.25
2019-03-26T22:00:43.020Z,101742.06
2019-03-26T22:03:13.033Z,101751.61
2019-03-26T22:05:43.370Z,101744.64
2019-03-26T22:08:13.645Z,101740.20
2019-03-26T22:10:43.971Z,101739.67
2019-03-26T22:13:14.381Z,101751.79
2019-03-26T22:15:44.411Z,101748.81
2019-03-26T22:18:14.707Z,101760.20
2019-03-26T22:20:44.760Z,101759.68
2019-03-26T22:23:14.972Z,101759.97
2019-03-26T22:25:45.001Z,101767.44
2019-03-26T22:28:15.181Z,101768.34
2019-03-26T22:30:45.252Z,101774.89
2019-03-26T22:33:15.406Z,101777.06
2019-03-26T22:35:45.504Z,101786.98
2019-03-26T22:38:15.756Z,101787.32
2019-03-26T22:40:45.943Z,101781.19
2019-03-26T22:43:16.220Z,101789.27
2019-03-26T22:45:46.365Z,101786.33
2019-03-26T22:48:16.665Z,101789.12
2019-03-26T22:50:46.843Z,101792.11
2019-03-26T22:53:17.005Z,101796.89
2019-03-26T22:55:47.073Z,101796.55
2019-03-26T22:58:17.363Z,101789.03
2019-03-26T23:00:47.508Z,101787.28
2019-03-26T23:03:17.708Z,101793.98
2019-03-26T23:05:47.855Z,101789.67
2019-03-26T23:08:18.144Z,101796.34
2019-03-26T23:10:48.307Z,101799.77
2019-03-26T23:13:18.591Z,101809.88
2019-03-26T23:15:48.744Z,101806.13
2019-03-26T23:18:18.969Z,101810.59
2019-03-26T23:20:49.354Z,101803.81
2019-03-26T23:23:19.534Z,101817.89
2019-03-26T23:25:49.690Z,101821.61
2019-03-26T23:28:19.864Z,101817.14
2019-03-26T23:30:50.401Z,101820.16
2019-03-26T23:33:20.714Z,101820.18
2019-03-26T23:35:50.981Z,101819.81
2019-03-26T23:38:21.132Z,101818.37
2019-03-26T23:40:51.213Z,101822.47
2019-03-26T23:43:21.395Z,101815.41
2019-03-26T23:45:51.769Z,101811.52
2019-03-26T23:48:21.927Z,101813.69
2019-03-26T23:50:52.085Z,101812.33
2019-03-26T23:53:22.293Z,101808.91
2019-03-26T23:55:52.454Z,101815.94
2019-03-26T23:58:22.535Z,101812.65
